Time;durP1;ratioP1;P1;durP2;ratioP2;P2;SDS_P1;SDS_P2;PMS_P1;PMS_P2;Temp;Humidity;BMP_temperature;BMP_pressure;BME280_temperature;BME280_humidity;BME280_pressure;Samples;Min_cycle;Max_cycle;Signal;HPM_P1;HPM_P2
2023/08/02 00:00:58;;;;;;;;;;;;;;;22.67;28.07;97284.72;4924458;29;1184;-74
2023/08/02 00:03:23;;;;;;;;;;;;;;;22.80;27.56;97276.09;4939914;29;1049;-74
2023/08/02 00:05:53;;;;;;;;;;;;;;;22.68;28.04;97277.81;4936837;29;1990;-74
2023/08/02 00:08:18;;;;;;;;;;;;;;;22.82;27.73;97285.72;4936604;29;907;-74
2023/08/02 00:10:44;;;;;;;;;;;;;;;22.86;27.69;97286.34;4936705;29;1365;-74
2023/08/02 00:13:09;;;;;;;;;;;;;;;22.67;28.06;97287.56;4936729;29;1043;-74
2023/08/02 00:15:38;;;;;;;;;;;;;;;22.65;28.19;97281.59;4936833;29;1242;-73
2023/08/02 00:18:04;;;;;;;;;;;;;;;22.90;27.78;97282.59;4936448;29;1000;-74
2023/08/02 00:20:29;;;;;;;;;;;;;;;22.86;27.80;97280.69;4936574;29;956;-74
2023/08/02 00:22:55;;;;;;;;;;;;;;;22.71;28.00;97284.59;4904828;29;1319;-74
2023/08/02 00:25:21;;;;;;;;;;;;;;;22.54;28.07;97289.75;4936289;29;1910;-74
2023/08/02 00:27:47;;;;;;;;;;;;;;;22.71;28.00;97282.53;4936143;29;1423;-74
2023/08/02 00:30:12;;;;;;;;;;;;;;;22.79;27.57;97280.97;4936540;29;971;-74
2023/08/02 00:32:44;;;;;;;;;;;;;;;22.94;27.63;97280.38;4936289;29;863;-74
2023/08/02 00:35:10;;;;;;;;;;;;;;;22.63;28.10;97281.25;4920585;29;1165;-73
2023/08/02 00:37:35;;;;;;;;;;;;;;;22.85;27.81;97273.44;4936340;29;981;-73
2023/08/02 00:40:01;;;;;;;;;;;;;;;22.52;28.43;97283.75;4936262;29;1026;-75
2023/08/02 00:42:26;;;;;;;;;;;;;;;22.63;28.17;97278.41;4942970;28;986;-75
2023/08/02 00:44:52;;;;;;;;;;;;;;;22.92;27.59;97269.53;4958622;28;1907;-75
2023/08/02 00:47:17;;;;;;;;;;;;;;;22.61;28.00;97276.06;4974514;28;1089;-74
2023/08/02 00:49:44;;;;;;;;;;;;;;;22.67;27.87;97264.88;4958542;28;984;-73
2023/08/02 00:52:10;;;;;;;;;;;;;;;22.73;27.89;97271.50;4942765;28;1407;-74
2023/08/02 00:54:36;;;;;;;;;;;;;;;22.63;28.20;97273.53;4958650;28;1101;-75
2023/08/02 00:57:02;;;;;;;;;;;;;;;22.65;27.73;97281.59;4942507;28;1648;-74
2023/08/02 00:59:27;;;;;;;;;;;;;;;22.68;28.02;97277.81;4958657;28;950;-74
2023/08/02 01:01:53;;;;;;;;;;;;;;;22.73;27.88;97277.19;4958217;28;1189;-74
2023/08/02 01:04:18;;;;;;;;;;;;;;;22.49;28.33;97273.38;4956205;29;1910;-74
2023/08/02 01:06:44;;;;;;;;;;;;;;;22.77;27.79;97277.81;4956393;29;865;-74
2023/08/02 01:09:23;;;;;;;;;;;;;;;22.65;27.93;97275.91;4916982;29;973;-74
2023/08/02 01:11:50;;;;;;;;;;;;;;;22.62;27.76;97279.69;4901543;29;1234;-74
2023/08/02 01:14:17;;;;;;;;;;;;;;;22.76;27.90;97276.25;4916946;29;1085;-74
2023/08/02 01:16:42;;;;;;;;;;;;;;;22.94;27.37;97274.72;4901381;29;1059;-74
2023/08/02 01:19:08;;;;;;;;;;;;;;;22.46;28.12;97277.13;4866962;29;1671;-74
2023/08/02 01:21:34;;;;;;;;;;;;;;;22.49;27.98;97279.03;4845242;29;1283;-74
2023/08/02 01:24:00;;;;;;;;;;;;;;;22.60;28.04;97274.50;4860807;29;1984;-74
2023/08/02 01:26:26;;;;;;;;;;;;;;;22.71;27.94;97276.88;4860636;29;1585;-74
2023/08/02 01:28:52;;;;;;;;;;;;;;;22.86;27.49;97279.88;4845340;29;1223;-74
2023/08/02 01:31:17;;;;;;;;;;;;;;;22.68;27.99;97277.00;4824072;29;1136;-74
2023/08/02 01:33:46;;;;;;;;;;;;;;;22.67;27.81;97273.41;4824094;29;966;-74
2023/08/02 01:36:11;;;;;;;;;;;;;;;22.66;27.89;97260.47;4839340;29;1338;-74
2023/08/02 01:38:37;;;;;;;;;;;;;;;22.74;27.72;97261.75;4839122;29;1078;-74
2023/08/02 01:41:02;;;;;;;;;;;;;;;22.77;27.84;97266.47;4840308;29;933;-74
2023/08/02 01:43:28;;;;;;;;;;;;;;;22.64;27.90;97263.00;4842031;29;1051;-73
2023/08/02 01:45:53;;;;;;;;;;;;;;;22.68;27.97;97260.78;4842496;29;1919;-73
2023/08/02 01:48:19;;;;;;;;;;;;;;;22.55;27.76;97260.94;4842126;29;1132;-74
2023/08/02 01:50:45;;;;;;;;;;;;;;;22.56;27.90;97261.72;4857561;29;1139;-74
2023/08/02 01:53:11;;;;;;;;;;;;;;;22.56;27.89;97262.50;4885892;29;1258;-75
2023/08/02 01:55:37;;;;;;;;;;;;;;;22.73;27.80;97268.66;4883307;29;1120;-73
2023/08/02 01:58:03;;;;;;;;;;;;;;;22.72;27.79;97261.44;4932418;29;1596;-74
2023/08/02 02:00:29;;;;;;;;;;;;;;;22.77;27.63;97263.63;4899179;29;1337;-73
2023/08/02 02:02:57;;;;;;;;;;;;;;;22.85;27.28;97264.94;4901390;29;1143;-74
2023/08/02 02:05:23;;;;;;;;;;;;;;;22.63;28.01;97261.41;4900934;29;1961;-74
2023/08/02 02:07:49;;;;;;;;;;;;;;;22.60;27.68;97256.69;4884415;29;1466;-74
2023/08/02 02:10:14;;;;;;;;;;;;;;;22.55;28.04;97260.94;4885434;29;1111;-73
2023/08/02 02:12:40;;;;;;;;;;;;;;;22.77;27.92;97254.34;4866217;29;1045;-73
2023/08/02 02:15:06;;;;;;;;;;;;;;;22.65;27.75;97258.91;4882270;29;959;-73
2023/08/02 02:17:31;;;;;;;;;;;;;;;22.54;27.98;97264.25;4866802;29;1142;-74
2023/08/02 02:19:57;;;;;;;;;;;;;;;22.63;28.00;97261.41;4866671;29;1258;-74
2023/08/02 02:22:22;;;;;;;;;;;;;;;22.21;28.65;97270.44;4866233;29;1255;-74
2023/08/02 02:24:48;;;;;;;;;;;;;;;22.85;27.55;97267.75;4881920;29;1993;-74
2023/08/02 02:27:13;;;;;;;;;;;;;;;22.46;28.01;97262.97;4882118;29;1620;-74
2023/08/02 02:29:39;;;;;;;;;;;;;;;22.42;28.38;97265.16;4881841;29;1114;-74
2023/08/02 02:32:05;;;;;;;;;;;;;;;22.26;28.30;97261.31;4883899;29;1336;-74
2023/08/02 02:34:30;;;;;;;;;;;;;;;22.79;27.56;97249.75;4919176;29;916;-75
2023/08/02 02:36:56;;;;;;;;;;;;;;;22.72;27.57;97264.25;4888112;29;1259;-74
2023/08/02 02:39:23;;;;;;;;;;;;;;;22.66;28.04;97266.16;4931526;29;1159;-74
2023/08/02 02:41:49;;;;;;;;;;;;;;;22.73;27.57;97260.16;4925712;29;1259;-75
2023/08/02 02:44:15;;;;;;;;;;;;;;;22.69;27.78;97265.22;4941329;29;1887;-74
2023/08/02 02:46:40;;;;;;;;;;;;;;;22.45;28.04;97261.38;4941366;29;1104;-74
2023/08/02 02:49:06;;;;;;;;;;;;;;;22.10;28.48;97258.72;4941473;29;971;-73
2023/08/02 02:51:31;;;;;;;;;;;;;;;22.28;28.33;97255.19;4958282;29;1514;-73
2023/08/02 02:53:57;;;;;;;;;;;;;;;22.52;27.98;97258.25;4959537;28;920;-74
2023/08/02 02:56:22;;;;;;;;;;;;;;;22.39;28.12;97257.59;4942660;29;1103;-74
2023/08/02 02:58:48;;;;;;;;;;;;;;;22.51;27.94;97256.66;4942369;29;1256;-74
2023/08/02 03:01:14;;;;;;;;;;;;;;;22.51;28.21;97256.66;4957204;29;987;-74
2023/08/02 03:03:39;;;;;;;;;;;;;;;22.67;27.76;97267.72;4941258;28;952;-74
2023/08/02 03:06:05;;;;;;;;;;;;;;;22.69;27.54;97265.22;4940963;29;1977;-74
2023/08/02 03:08:31;;;;;;;;;;;;;;;22.65;27.96;97264.59;4940944;29;1668;-73
2023/08/02 03:10:56;;;;;;;;;;;;;;;22.41;28.37;97277.75;4940471;29;985;-74
2023/08/02 03:13:22;;;;;;;;;;;;;;;22.78;27.51;97279.41;4956176;28;966;-75
2023/08/02 03:15:48;;;;;;;;;;;;;;;22.56;28.06;97273.06;4957042;29;1089;-74
2023/08/02 03:18:13;;;;;;;;;;;;;;;22.76;27.57;97266.97;4940726;29;951;-74
2023/08/02 03:20:39;;;;;;;;;;;;;;;22.39;28.30;97268.94;4940955;29;1020;-73
2023/08/02 03:23:05;;;;;;;;;;;;;;;22.62;27.90;97271.19;4925183;29;1020;-74
2023/08/02 03:25:31;;;;;;;;;;;;;;;22.61;28.04;97266.78;4924967;29;1919;-74
2023/08/02 03:27:56;;;;;;;;;;;;;;;22.40;28.07;97259.16;4955494;29;1254;-75
2023/08/02 03:30:22;;;;;;;;;;;;;;;22.64;27.73;97257.34;4956051;29;1204;-75
2023/08/02 03:32:48;;;;;;;;;;;;;;;22.39;28.28;97251.94;4951951;29;1279;-76
2023/08/02 03:35:13;;;;;;;;;;;;;;;22.36;28.43;97257.25;4957467;29;1200;-75
2023/08/02 03:37:39;;;;;;;;;;;;;;;22.51;28.12;97259.50;4958609;28;1227;-75
2023/08/02 03:40:04;;;;;;;;;;;;;;;22.39;28.10;97263.25;4954419;29;2233;-75
2023/08/02 03:42:30;;;;;;;;;;;;;;;22.48;28.20;97254.75;4955211;29;1652;-76
2023/08/02 03:44:56;;;;;;;;;;;;;;;22.54;28.00;97259.38;4941421;29;1990;-75
2023/08/02 03:47:21;;;;;;;;;;;;;;;22.35;28.45;97267.03;4957266;29;1294;-74
2023/08/02 03:49:47;;;;;;;;;;;;;;;22.73;27.83;97260.16;4924348;29;924;-75
2023/08/02 03:52:12;;;;;;;;;;;;;;;22.67;27.80;97262.06;4940880;29;1588;-75
2023/08/02 03:54:38;;;;;;;;;;;;;;;22.66;28.24;97265.38;4925504;29;2088;-75
2023/08/02 03:57:04;;;;;;;;;;;;;;;22.55;28.12;97260.94;4958667;28;943;-75
2023/08/02 03:59:29;;;;;;;;;;;;;;;22.75;27.89;97254.81;4925613;29;1291;-75
2023/08/02 04:01:55;;;;;;;;;;;;;;;22.91;27.61;97252.97;4956736;28;1303;-75
2023/08/02 04:04:21;;;;;;;;;;;;;;;22.62;28.20;97259.84;4956856;29;1914;-74
2023/08/02 04:06:47;;;;;;;;;;;;;;;22.71;27.97;97254.19;4957095;29;945;-75
2023/08/02 04:09:12;;;;;;;;;;;;;;;22.65;28.19;97247.56;4941052;29;1263;-75
2023/08/02 04:11:38;;;;;;;;;;;;;;;22.51;28.35;97253.84;4956638;29;1403;-75
2023/08/02 04:14:03;;;;;;;;;;;;;;;22.69;27.91;97253.06;4957434;29;925;-75
2023/08/02 04:16:29;;;;;;;;;;;;;;;22.62;28.17;97245.66;4941131;29;994;-75
2023/08/02 04:18:54;;;;;;;;;;;;;;;22.53;28.45;97245.63;4957136;29;937;-75
2023/08/02 04:21:20;;;;;;;;;;;;;;;22.61;28.26;97247.72;4939662;29;1545;-75
2023/08/02 04:23:47;;;;;;;;;;;;;;;22.30;28.65;97250.63;4918302;29;1488;-74
2023/08/02 04:26:13;;;;;;;;;;;;;;;22.70;28.08;97251.81;4920873;29;1964;-75
2023/08/02 04:28:39;;;;;;;;;;;;;;;22.87;27.99;97253.88;4920619;29;1003;-75
2023/08/02 04:31:04;;;;;;;;;;;;;;;22.86;27.88;97252.31;4920037;29;1487;-74
2023/08/02 04:33:30;;;;;;;;;;;;;;;22.79;28.16;97252.59;4920140;29;1416;-75
2023/08/02 04:35:59;;;;;;;;;;;;;;;23.03;27.66;97254.88;4920585;29;1210;-74
2023/08/02 04:38:25;;;;;;;;;;;;;;;22.72;28.36;97250.09;4936450;29;1101;-74
2023/08/02 04:40:50;;;;;;;;;;;;;;;22.51;28.40;97251.78;4935477;29;1547;-75
2023/08/02 04:43:16;;;;;;;;;;;;;;;22.50;28.47;97253.03;4920406;29;1260;-75
2023/08/02 04:45:42;;;;;;;;;;;;;;;22.38;29.03;97253.94;4920178;29;1989;-74
2023/08/02 04:48:07;;;;;;;;;;;;;;;22.65;28.25;97258.13;4898729;29;1703;-75
2023/08/02 04:50:33;;;;;;;;;;;;;;;22.80;28.16;97261.94;4881381;29;1442;-75
2023/08/02 04:52:59;;;;;;;;;;;;;;;22.56;28.63;97254.00;4863820;29;1154;-74
2023/08/02 04:55:24;;;;;;;;;;;;;;;22.75;28.22;97254.81;4863775;29;1207;-75
2023/08/02 04:57:50;;;;;;;;;;;;;;;22.79;28.35;97258.28;4864073;29;1247;-75
2023/08/02 05:00:16;;;;;;;;;;;;;;;22.77;28.09;97254.34;4848264;29;1711;-75
2023/08/02 05:02:41;;;;;;;;;;;;;;;22.60;28.56;97248.19;4851526;29;1623;-75
2023/08/02 05:05:07;;;;;;;;;;;;;;;22.73;28.50;97254.50;4863904;29;1976;-75
2023/08/02 05:07:33;;;;;;;;;;;;;;;22.69;28.41;97258.72;4864036;29;1232;-76
2023/08/02 05:10:03;;;;;;;;;;;;;;;22.75;28.33;97252.00;4875218;29;1484;-75
2023/08/02 05:12:30;;;;;;;;;;;;;;;22.73;28.17;97259.38;4867411;29;946;-75
2023/08/02 05:14:56;;;;;;;;;;;;;;;22.68;28.22;97257.94;4851396;29;1249;-74
2023/08/02 05:17:22;;;;;;;;;;;;;;;22.63;28.73;97258.56;4882193;29;970;-75
2023/08/02 05:19:48;;;;;;;;;;;;;;;22.63;28.48;97255.72;4897124;29;1318;-74
2023/08/02 05:22:13;;;;;;;;;;;;;;;22.74;28.25;97255.28;4898228;29;955;-75
2023/08/02 05:24:39;;;;;;;;;;;;;;;22.61;28.48;97259.06;4897759;29;1903;-75
2023/08/02 05:27:04;;;;;;;;;;;;;;;22.69;28.70;97259.56;4898145;29;1169;-75
2023/08/02 05:29:30;;;;;;;;;;;;;;;22.83;28.49;97258.91;4901158;29;1539;-75
2023/08/02 05:31:55;;;;;;;;;;;;;;;22.77;28.42;97255.13;4919917;29;957;-75
2023/08/02 05:34:21;;;;;;;;;;;;;;;22.83;28.41;97264.59;4936956;29;920;-75
2023/08/02 05:36:47;;;;;;;;;;;;;;;22.61;28.70;97259.06;4942311;29;998;-75
2023/08/02 05:39:12;;;;;;;;;;;;;;;22.74;28.30;97261.75;4958825;29;1504;-75
2023/08/02 05:41:38;;;;;;;;;;;;;;;22.73;28.63;97259.38;4960471;28;1413;-74
2023/08/02 05:44:03;;;;;;;;;;;;;;;22.55;28.78;97257.31;4959719;29;969;-75
2023/08/02 05:46:29;;;;;;;;;;;;;;;22.87;28.53;97259.56;4943738;29;1987;-75
2023/08/02 05:48:55;;;;;;;;;;;;;;;22.76;28.44;97256.41;4959267;29;1633;-75
2023/08/02 05:51:22;;;;;;;;;;;;;;;22.43;29.02;97258.22;4958949;29;1394;-75
2023/08/02 05:53:48;;;;;;;;;;;;;;;22.96;28.48;97255.97;4959613;29;1129;-75
2023/08/02 05:56:14;;;;;;;;;;;;;;;22.79;28.61;97263.94;4942353;29;938;-75
2023/08/02 05:58:39;;;;;;;;;;;;;;;22.87;28.37;97253.88;4959403;29;925;-75
2023/08/02 06:01:05;;;;;;;;;;;;;;;22.87;28.34;97255.94;4957870;29;1541;-75
2023/08/02 06:03:31;;;;;;;;;;;;;;;22.63;28.83;97255.72;4959321;28;1409;-75
2023/08/02 06:05:56;;;;;;;;;;;;;;;22.61;28.76;97259.06;4960442;28;1914;-75
2023/08/02 06:08:22;;;;;;;;;;;;;;;22.70;28.99;97261.13;4960133;28;995;-75
2023/08/02 06:10:47;;;;;;;;;;;;;;;22.88;28.63;97261.16;4958721;29;1433;-75
2023/08/02 06:13:13;;;;;;;;;;;;;;;22.66;28.86;97260.47;4942110;29;970;-75
2023/08/02 06:15:38;;;;;;;;;;;;;;;22.93;28.67;97267.47;4960283;28;935;-75
2023/08/02 06:18:04;;;;;;;;;;;;;;;22.75;28.97;97268.22;4958862;29;964;-75
2023/08/02 06:20:30;;;;;;;;;;;;;;;22.89;28.71;97261.94;4959670;28;1462;-75
2023/08/02 06:22:55;;;;;;;;;;;;;;;23.07;28.48;97266.84;4958929;29;1112;-75
2023/08/02 06:25:21;;;;;;;;;;;;;;;22.74;28.75;97273.09;4957648;29;1903;-75
2023/08/02 06:27:46;;;;;;;;;;;;;;;22.90;28.80;97274.06;4941692;29;1626;-75
2023/08/02 06:30:13;;;;;;;;;;;;;;;22.30;29.54;97276.13;4954346;29;1917;-75
2023/08/02 06:32:38;;;;;;;;;;;;;;;22.83;28.92;97275.16;4969875;28;1870;-75
2023/08/02 06:35:04;;;;;;;;;;;;;;;22.96;29.44;97273.00;4955382;29;2088;-68
2023/08/02 06:37:29;;;;;;;;;;;;;;;22.84;32.08;97271.84;4956512;29;1705;-69
2023/08/02 06:39:55;;;;;;;;;;;;;;;23.27;33.30;97274.88;4957425;28;1902;-70
2023/08/02 06:42:21;;;;;;;;;;;;;;;23.66;33.71;97270.28;4968131;28;2055;-69
2023/08/02 06:44:46;;;;;;;;;;;;;;;23.78;34.65;97263.63;4947466;29;2143;-76
2023/08/02 06:47:12;;;;;;;;;;;;;;;23.59;34.16;97273.44;4948636;28;2300;-76
2023/08/02 06:49:37;;;;;;;;;;;;;;;23.51;33.97;97267.28;4951749;29;2409;-75
2023/08/02 06:52:03;;;;;;;;;;;;;;;23.29;33.31;97273.13;4956552;29;1814;-75
2023/08/02 06:54:29;;;;;;;;;;;;;;;23.24;32.86;97262.41;4899610;29;1971;-76
2023/08/02 06:56:54;;;;;;;;;;;;;;;23.66;31.79;97261.75;4901388;29;1894;-75
2023/08/02 06:59:20;;;;;;;;;;;;;;;23.12;32.31;97264.16;4903366;29;1115;-75
2023/08/02 07:01:45;;;;;;;;;;;;;;;23.02;32.27;97265.44;4887555;29;956;-74
2023/08/02 07:04:11;;;;;;;;;;;;;;;23.24;31.65;97265.25;4902688;29;1295;-75
2023/08/02 07:06:37;;;;;;;;;;;;;;;23.11;31.51;97262.59;4918878;29;1090;-75
2023/08/02 07:09:02;;;;;;;;;;;;;;;23.45;30.64;97257.03;4918918;29;980;-75
2023/08/02 07:11:28;;;;;;;;;;;;;;;23.43;30.69;97260.34;4918825;29;987;-75
2023/08/02 07:13:53;;;;;;;;;;;;;;;23.31;30.57;97247.13;4917007;29;1740;-75
2023/08/02 07:16:19;;;;;;;;;;;;;;;23.18;30.59;97255.81;4899691;29;1439;-75
2023/08/02 07:18:45;;;;;;;;;;;;;;;23.23;30.37;97266.53;4913016;29;1615;-75
2023/08/02 07:21:10;;;;;;;;;;;;;;;23.03;30.78;97260.53;4918484;29;1025;-75
2023/08/02 07:23:36;;;;;;;;;;;;;;;23.06;30.50;97259.59;4903583;29;1179;-74
2023/08/02 07:26:02;;;;;;;;;;;;;;;22.98;30.61;97252.66;4902536;29;1910;-75
2023/08/02 07:28:27;;;;;;;;;;;;;;;23.05;30.31;97258.00;4902709;29;1060;-75
2023/08/02 07:30:53;;;;;;;;;;;;;;;22.95;30.35;97259.25;4904148;29;998;-75
2023/08/02 07:33:19;;;;;;;;;;;;;;;23.16;29.79;97263.19;4949012;29;1372;-74
2023/08/02 07:35:46;;;;;;;;;;;;;;;23.18;30.15;97261.47;4957012;29;1358;-74
2023/08/02 07:38:13;;;;;;;;;;;;;;;23.27;29.80;97267.16;4957456;29;1290;-75
2023/08/02 07:40:38;;;;;;;;;;;;;;;23.18;29.98;97261.47;4958624;28;945;-75
2023/08/02 07:43:04;;;;;;;;;;;;;;;23.38;29.27;97263.84;4958055;28;1579;-75
2023/08/02 07:45:30;;;;;;;;;;;;;;;23.01;30.03;97263.06;4953067;29;1910;-75
2023/08/02 07:47:55;;;;;;;;;;;;;;;23.04;30.02;97262.09;4954641;29;1234;-75
2023/08/02 07:50:21;;;;;;;;;;;;;;;23.14;29.82;97255.16;4938263;29;982;-75
2023/08/02 07:52:47;;;;;;;;;;;;;;;22.86;30.21;97257.19;4970532;28;1442;-75
2023/08/02 07:55:13;;;;;;;;;;;;;;;22.98;30.06;97256.28;4920803;29;962;-75
2023/08/02 07:57:38;;;;;;;;;;;;;;;23.17;29.55;97250.63;4936897;29;1577;-75
2023/08/02 08:00:04;;;;;;;;;;;;;;;23.22;29.51;97250.75;4889262;29;1392;-75
2023/08/02 08:02:37;;;;;;;;;;;;;;;23.05;30.03;97258.00;4921490;29;946;-75
2023/08/02 08:05:03;;;;;;;;;;;;;;;23.09;29.97;97247.28;4920823;29;1964;-75
2023/08/02 08:07:28;;;;;;;;;;;;;;;23.11;29.55;97259.75;4937023;29;1112;-75
2023/08/02 08:09:54;;;;;;;;;;;;;;;23.14;29.75;97240.97;4936171;29;1439;-75
2023/08/02 08:12:19;;;;;;;;;;;;;;;23.05;29.67;97238.16;4920723;29;940;-75
2023/08/02 08:14:45;;;;;;;;;;;;;;;23.20;29.76;97246.81;4905001;29;1637;-75
2023/08/02 08:17:11;;;;;;;;;;;;;;;22.91;30.22;97233.13;4920892;29;955;-75
2023/08/02 08:19:36;;;;;;;;;;;;;;;23.21;29.65;97242.72;4936509;29;1029;-75
2023/08/02 08:22:02;;;;;;;;;;;;;;;23.20;29.46;97236.25;4904835;29;1196;-75
2023/08/02 08:24:27;;;;;;;;;;;;;;;23.05;29.97;97232.47;4920581;29;1907;-74
2023/08/02 08:26:57;;;;;;;;;;;;;;;23.25;29.45;97240.50;4919513;29;1536;-75
2023/08/02 08:29:23;;;;;;;;;;;;;;;23.24;29.38;97242.56;4901609;29;1351;-76
2023/08/02 08:31:48;;;;;;;;;;;;;;;23.22;29.45;97230.91;4920617;29;951;-75
2023/08/02 08:34:14;;;;;;;;;;;;;;;23.17;29.44;97233.59;4947349;29;1439;-75
2023/08/02 08:36:40;;;;;;;;;;;;;;;23.33;29.21;97239.72;4941659;29;1497;-75
2023/08/02 08:39:05;;;;;;;;;;;;;;;23.19;29.67;97231.06;4928973;29;1600;-74
2023/08/02 08:41:31;;;;;;;;;;;;;;;23.06;29.54;97237.69;4937618;29;1035;-75
2023/08/02 08:43:56;;;;;;;;;;;;;;;23.24;29.37;97236.88;4936249;29;978;-76
2023/08/02 08:46:22;;;;;;;;;;;;;;;23.31;29.28;97236.56;4936463;29;1919;-76
2023/08/02 08:48:47;;;;;;;;;;;;;;;23.31;29.32;97216.69;4921653;29;880;-76
2023/08/02 08:51:13;;;;;;;;;;;;;;;23.10;29.78;97221.31;4938377;29;1176;-76
2023/08/02 08:53:45;;;;;;;;;;;;;;;23.27;29.73;97221.75;4954238;29;1280;-76
2023/08/02 08:56:10;;;;;;;;;;;;;;;23.26;29.69;97228.69;4956694;29;1179;-76
2023/08/02 08:58:36;;;;;;;;;;;;;;;23.35;29.26;97225.03;4936370;29;1606;-76
2023/08/02 09:01:03;;;;;;;;;;;;;;;23.29;29.49;97222.03;4916943;29;1579;-76
2023/08/02 09:03:29;;;;;;;;;;;;;;;23.14;29.50;97221.13;4900823;29;1719;-76
2023/08/02 09:05:57;;;;;;;;;;;;;;;23.45;29.43;97222.97;4917142;29;2597;-76
2023/08/02 09:08:22;;;;;;;;;;;;;;;23.12;29.61;97220.81;4900159;29;1419;-76
2023/08/02 09:10:48;;;;;;;;;;;;;;;23.13;29.75;97233.75;4890085;29;1298;-76
2023/08/02 09:13:23;;;;;;;;;;;;;;;23.16;29.71;97235.63;4882829;29;2072;-75
2023/08/02 09:16:09;;;;;;;;;;;;;;;23.17;29.63;97242.09;4846524;29;1195;-76
2023/08/02 09:18:38;;;;;;;;;;;;;;;23.00;29.74;97228.25;4846311;29;1061;-76
2023/08/02 09:21:04;;;;;;;;;;;;;;;22.82;30.23;97228.97;4845658;29;1466;-76
2023/08/02 09:23:29;;;;;;;;;;;;;;;23.06;30.01;97228.41;4846073;29;909;-75
2023/08/02 09:26:21;;;;;;;;;;;;;;;23.28;29.68;97229.00;4845996;29;1911;-76
2023/08/02 09:28:59;;;;;;;;;;;;;;;23.29;29.65;97227.72;4830673;29;1257;-76
2023/08/02 09:31:25;;;;;;;;;;;;;;;22.96;30.11;97236.13;4835315;29;908;-76
2023/08/02 09:33:51;;;;;;;;;;;;;;;23.20;29.95;97243.97;4870911;29;949;-76
2023/08/02 09:36:26;;;;;;;;;;;;;;;23.13;29.89;97242.25;4845992;29;900;-76
2023/08/02 09:38:55;;;;;;;;;;;;;;;23.36;29.65;97244.44;4827266;29;918;-76
2023/08/02 09:41:22;;;;;;;;;;;;;;;23.03;30.13;97246.34;4827425;29;1174;-75
2023/08/02 09:43:47;;;;;;;;;;;;;;;23.05;30.05;97246.66;4812484;29;902;-76
2023/08/02 09:46:23;;;;;;;;;;;;;;;23.16;30.01;97246.19;4811010;29;1923;-75
2023/08/02 09:48:48;;;;;;;;;;;;;;;23.19;29.71;97240.34;4812315;29;1178;-76
2023/08/02 09:51:14;;;;;;;;;;;;;;;23.29;29.52;97227.72;4823577;29;2075;-76
2023/08/02 09:53:40;;;;;;;;;;;;;;;23.23;29.60;97235.31;4808947;29;1535;-75
2023/08/02 09:56:05;;;;;;;;;;;;;;;23.31;29.67;97230.91;4794427;29;1639;-76
2023/08/02 09:58:31;;;;;;;;;;;;;;;23.49;29.38;97234.94;4793980;29;1092;-76
2023/08/02 10:00:57;;;;;;;;;;;;;;;23.14;30.08;97238.16;4761480;30;1222;-76
2023/08/02 10:03:23;;;;;;;;;;;;;;;22.86;30.32;97240.19;4774339;30;1929;-76
2023/08/02 10:05:48;;;;;;;;;;;;;;;23.21;30.12;97223.66;4786078;29;1939;-75
2023/08/02 10:08:14;;;;;;;;;;;;;;;23.30;29.83;97229.28;4772467;30;1002;-75
2023/08/02 10:10:39;;;;;;;;;;;;;;;22.95;30.20;97230.91;4805944;29;1143;-75
2023/08/02 10:13:08;;;;;;;;;;;;;;;22.77;30.61;97223.94;4858426;29;1943;-75
2023/08/02 10:15:34;;;;;;;;;;;;;;;23.20;30.29;97224.88;4879616;29;1970;-76
2023/08/02 10:18:00;;;;;;;;;;;;;;;23.04;30.31;97234.53;4882565;29;1055;-76
2023/08/02 10:20:25;;;;;;;;;;;;;;;23.13;30.29;97234.53;4881091;29;1024;-76
2023/08/02 10:22:51;;;;;;;;;;;;;;;23.18;30.23;97227.44;4882276;29;1026;-75
2023/08/02 10:25:17;;;;;;;;;;;;;;;23.20;30.07;97227.72;4882276;29;1968;-75
2023/08/02 10:27:43;;;;;;;;;;;;;;;22.88;30.72;97243.34;4862695;29;1857;-76
2023/08/02 10:30:09;;;;;;;;;;;;;;;23.11;30.22;97239.13;4862950;29;1865;-75
2023/08/02 10:32:34;;;;;;;;;;;;;;;23.16;30.46;97247.00;4891307;29;1717;-75
2023/08/02 10:35:00;;;;;;;;;;;;;;;23.30;29.89;97234.97;4885042;29;1098;-76
2023/08/02 10:37:45;;;;;;;;;;;;;;;23.15;30.35;97245.38;4885192;29;1150;-75
2023/08/02 10:40:11;;;;;;;;;;;;;;;23.30;30.29;97245.53;4934646;29;1126;-75
2023/08/02 10:42:56;;;;;;;;;;;;;;;23.16;30.23;97243.34;4921559;29;2029;-75
2023/08/02 10:45:22;;;;;;;;;;;;;;;23.05;30.31;97236.13;4922526;29;1977;-76
2023/08/02 10:47:47;;;;;;;;;;;;;;;23.04;30.55;97233.72;4938327;29;1142;-75
2023/08/02 10:50:33;;;;;;;;;;;;;;;23.31;29.94;97225.22;4922736;29;971;-76
2023/08/02 10:53:08;;;;;;;;;;;;;;;23.30;30.10;97223.63;4936445;29;2057;-76
2023/08/02 10:55:34;;;;;;;;;;;;;;;23.25;29.96;97227.09;4906712;29;1037;-76
2023/08/02 10:58:05;;;;;;;;;;;;;;;23.22;30.22;97221.59;4927757;29;992;-75
2023/08/02 11:00:31;;;;;;;;;;;;;;;23.25;30.25;97215.75;4958774;29;950;-76
2023/08/02 11:02:56;;;;;;;;;;;;;;;23.37;30.02;97206.28;4941528;29;1508;-76
2023/08/02 11:05:41;;;;;;;;;;;;;;;23.20;30.27;97216.38;4942568;29;1918;-76
2023/08/02 11:08:10;;;;;;;;;;;;;;;23.44;29.77;97210.81;4942630;29;945;-75
2023/08/02 11:10:56;;;;;;;;;;;;;;;23.25;30.19;97207.22;4942969;29;939;-75
2023/08/02 11:13:22;;;;;;;;;;;;;;;23.31;30.07;97202.50;4958571;28;1994;-76
2023/08/02 11:16:02;;;;;;;;;;;;;;;23.30;30.02;97195.22;4958601;29;929;-76
2023/08/02 11:18:29;;;;;;;;;;;;;;;23.26;30.10;97199.50;4958000;29;1103;-75
2023/08/02 11:20:54;;;;;;;;;;;;;;;23.23;30.38;97195.56;4958210;28;1849;-75
2023/08/02 11:23:21;;;;;;;;;;;;;;;23.09;30.60;97201.88;4941350;29;1840;-76
2023/08/02 11:25:47;;;;;;;;;;;;;;;23.32;30.23;97208.97;4958202;29;1906;-76
2023/08/02 11:28:13;;;;;;;;;;;;;;;23.59;29.94;97199.59;4957786;29;1115;-76
2023/08/02 11:30:39;;;;;;;;;;;;;;;23.34;29.95;97189.41;4957124;29;1979;-76
2023/08/02 11:33:05;;;;;;;;;;;;;;;23.25;30.25;97187.34;4959027;28;939;-76
2023/08/02 11:35:30;;;;;;;;;;;;;;;23.21;30.11;97203.78;4957817;29;1089;-76
2023/08/02 11:37:56;;;;;;;;;;;;;;;23.30;30.14;97189.56;4942140;29;1093;-76
2023/08/02 11:40:21;;;;;;;;;;;;;;;23.61;29.82;97197.06;4957887;29;932;-75
2023/08/02 11:42:51;;;;;;;;;;;;;;;23.30;30.20;97200.91;4956976;28;1788;-75
2023/08/02 11:45:30;;;;;;;;;;;;;;;23.30;30.34;97197.28;4941957;29;1899;-76
2023/08/02 11:47:55;;;;;;;;;;;;;;;23.42;29.83;97187.81;4957793;29;911;-76
2023/08/02 11:50:25;;;;;;;;;;;;;;;23.34;30.06;97193.03;4941688;29;1343;-76
2023/08/02 11:52:50;;;;;;;;;;;;;;;23.24;30.44;97190.69;4936588;29;1809;-76
2023/08/02 11:55:17;;;;;;;;;;;;;;;23.23;30.26;97181.38;4937111;29;927;-76
2023/08/02 11:57:42;;;;;;;;;;;;;;;23.21;30.39;97185.94;4937540;29;965;-76
2023/08/02 12:00:08;;;;;;;;;;;;;;;23.37;29.68;97194.13;4921640;29;1067;-76
2023/08/02 12:02:37;;;;;;;;;;;;;;;23.56;29.59;97195.63;4936397;29;1698;-76
2023/08/02 12:05:08;;;;;;;;;;;;;;;23.32;29.94;97189.88;4921117;29;1989;-76
2023/08/02 12:07:34;;;;;;;;;;;;;;;23.37;29.99;97192.09;4921213;29;1433;-75
2023/08/02 12:10:03;;;;;;;;;;;;;;;23.30;29.97;97195.22;4921272;29;1165;-76
2023/08/02 12:12:29;;;;;;;;;;;;;;;23.27;29.79;97195.41;4905197;29;1934;-76
2023/08/02 12:14:55;;;;;;;;;;;;;;;23.25;30.14;97195.88;4921081;29;1299;-75
2023/08/02 12:17:21;;;;;;;;;;;;;;;23.27;30.05;97182.00;4921403;29;1033;-76
2023/08/02 12:19:46;;;;;;;;;;;;;;;23.21;30.21;97181.09;4937226;29;988;-76
2023/08/02 12:22:12;;;;;;;;;;;;;;;23.19;30.16;97191.31;4936041;29;1945;-76
2023/08/02 12:24:38;;;;;;;;;;;;;;;23.30;30.15;97189.56;4950448;29;1966;-76
2023/08/02 12:27:16;;;;;;;;;;;;;;;23.46;29.79;97196.16;4938221;29;1294;-76
2023/08/02 12:29:43;;;;;;;;;;;;;;;23.19;30.22;97188.47;4920737;29;936;-76
2023/08/02 12:32:09;;;;;;;;;;;;;;;23.36;29.82;97190.50;4920271;29;1831;-76
2023/08/02 12:34:36;;;;;;;;;;;;;;;23.22;30.18;97194.00;4901892;29;1280;-75
2023/08/02 12:37:05;;;;;;;;;;;;;;;23.28;30.09;97191.31;4901634;29;1022;-76
2023/08/02 12:39:30;;;;;;;;;;;;;;;23.52;29.76;97202.75;4917869;29;996;-75
2023/08/02 12:41:56;;;;;;;;;;;;;;;23.59;29.70;97199.59;4916339;29;1684;-76
2023/08/02 12:44:21;;;;;;;;;;;;;;;23.06;30.05;97191.50;4917037;29;948;-76
2023/08/02 12:46:47;;;;;;;;;;;;;;;23.48;29.62;97193.63;4917388;29;1983;-76
2023/08/02 12:49:13;;;;;;;;;;;;;;;23.49;29.29;97190.31;4917211;29;1013;-76
2023/08/02 12:51:38;;;;;;;;;;;;;;;23.49;29.35;97193.16;4916729;29;1879;-76
2023/08/02 12:54:04;;;;;;;;;;;;;;;23.21;29.85;97195.28;4900124;29;1699;-77
2023/08/02 12:56:30;;;;;;;;;;;;;;;22.90;30.49;97198.28;4879643;29;942;-75